createdAt,value
2024-02-08T09:09:03.994Z,13.00
2024-02-08T09:12:08.597Z,12.43
2024-02-08T09:15:47.739Z,11.89
2024-02-08T09:19:28.673Z,11.51
2024-02-08T09:22:35.789Z,11.19
2024-02-08T09:25:41.734Z,10.97
2024-02-08T09:28:49.584Z,10.84
2024-02-08T09:31:56.608Z,10.73
2024-02-08T09:35:01.854Z,10.67
2024-02-08T09:38:10.841Z,10.60
2024-02-08T09:41:32.624Z,10.57
2024-02-08T09:44:36.713Z,10.55
2024-02-08T09:47:42.713Z,10.54
2024-02-08T09:51:01.767Z,10.51
2024-02-08T09:54:22.749Z,10.50
2024-02-08T09:57:43.747Z,10.50
2024-02-08T10:01:06.881Z,10.52
2024-02-08T10:04:23.822Z,10.57
2024-02-08T10:07:41.987Z,10.59
2024-02-08T10:11:19.892Z,10.65
2024-02-08T10:14:33.898Z,10.71
2024-02-08T10:17:51.586Z,10.77
2024-02-08T10:21:06.971Z,10.79
2024-02-08T10:24:41.825Z,10.80
2024-02-08T10:27:43.866Z,10.82
2024-02-08T10:30:53.806Z,10.83
2024-02-08T10:34:39.862Z,10.83
2024-02-08T10:37:57.884Z,10.82
2024-02-08T10:41:04.367Z,10.82
2024-02-08T10:44:13.898Z,10.81
2024-02-08T10:47:28.719Z,10.83
2024-02-08T10:50:38.885Z,10.82
2024-02-08T10:53:56.984Z,10.81
2024-02-08T10:57:42.809Z,10.81
2024-02-08T11:01:06.869Z,10.83
2024-02-08T11:04:21.183Z,10.83
2024-02-08T11:07:31.548Z,10.85
2024-02-08T11:10:55.964Z,10.83
2024-02-08T11:14:09.064Z,10.81
2024-02-08T11:17:18.999Z,10.86
2024-02-08T11:20:41.963Z,10.90
2024-02-08T11:23:53.999Z,10.91
2024-02-08T11:27:07.194Z,10.92
2024-02-08T11:30:09.054Z,10.94
2024-02-08T11:33:21.978Z,10.98
2024-02-08T11:36:28.057Z,11.04
2024-02-08T11:39:39.136Z,11.07
2024-02-08T11:42:47.215Z,11.09
2024-02-08T11:45:52.057Z,11.11
2024-02-08T11:48:57.137Z,11.16
2024-02-08T11:52:00.007Z,11.20
2024-02-08T11:55:22.164Z,11.24
2024-02-08T11:58:25.149Z,11.28
2024-02-08T12:01:33.193Z,11.29
2024-02-08T12:04:59.119Z,11.31
2024-02-08T12:08:06.130Z,11.31
2024-02-08T12:11:09.223Z,11.32
2024-02-08T12:17:37.103Z,11.38
2024-02-08T12:20:44.998Z,11.41
2024-02-08T12:23:50.280Z,11.46
2024-02-08T12:27:02.393Z,11.49
2024-02-08T12:30:11.181Z,11.51
2024-02-08T12:33:19.337Z,11.53
2024-02-08T12:36:16.226Z,11.55
2024-02-08T12:39:26.200Z,11.63
2024-02-08T12:42:32.124Z,11.66
2024-02-08T12:45:36.235Z,11.70
2024-02-08T12:48:38.471Z,11.75
2024-02-08T12:51:44.180Z,11.80
2024-02-08T12:54:50.798Z,11.86
2024-02-08T12:57:54.478Z,11.94
2024-02-08T13:01:13.371Z,12.01
2024-02-08T13:04:15.232Z,12.04
2024-02-08T13:07:19.270Z,12.04
2024-02-08T13:10:22.231Z,12.05
2024-02-08T13:13:33.372Z,12.06
2024-02-08T13:16:50.950Z,12.09
2024-02-08T13:24:50.376Z,12.02
2024-02-08T13:28:01.496Z,12.01
2024-02-08T13:31:13.469Z,11.99
2024-02-08T13:34:36.383Z,11.95
2024-02-08T13:37:51.763Z,11.90
2024-02-08T13:41:08.603Z,11.85
2024-02-08T13:44:21.630Z,11.81
2024-02-08T13:47:26.564Z,11.76
2024-02-08T13:50:36.701Z,11.70
2024-02-08T13:53:43.306Z,11.66
2024-02-08T13:56:49.602Z,11.65
2024-02-08T13:59:56.400Z,11.63
2024-02-08T14:03:06.642Z,11.63
2024-02-08T14:06:11.422Z,11.63
2024-02-08T14:09:32.317Z,11.61
2024-02-08T14:12:34.377Z,11.63
2024-02-08T14:15:46.430Z,11.65
2024-02-08T14:19:03.475Z,11.67
2024-02-08T14:22:14.861Z,11.67
2024-02-08T14:25:31.474Z,11.64
2024-02-08T14:28:33.381Z,11.60
2024-02-08T14:31:43.772Z,11.56
2024-02-08T14:34:47.592Z,11.52
2024-02-08T14:37:55.549Z,11.46
2024-02-08T14:41:01.658Z,11.41
2024-02-08T14:44:13.459Z,11.35
2024-02-08T14:47:16.875Z,11.31
2024-02-08T14:50:45.480Z,11.24
2024-02-08T14:53:49.498Z,11.18
2024-02-08T14:56:54.546Z,11.11
2024-02-08T15:00:01.549Z,11.00
2024-02-08T15:03:17.598Z,10.89
2024-02-08T15:06:40.560Z,10.77
2024-02-08T15:10:10.555Z,10.69
2024-02-08T15:13:28.552Z,10.58
2024-02-08T15:16:39.578Z,10.47
2024-02-08T15:19:52.614Z,10.39
2024-02-08T15:22:58.544Z,10.28
2024-02-08T15:26:07.534Z,10.17
2024-02-08T15:29:38.549Z,10.04
2024-02-08T15:32:54.564Z,9.91
2024-02-08T15:36:00.626Z,9.79
2024-02-08T15:39:14.645Z,9.65
2024-02-08T15:42:40.572Z,9.55
2024-02-08T15:45:51.659Z,9.48
2024-02-08T15:48:59.791Z,9.40
2024-02-08T15:52:22.614Z,9.34
2024-02-08T15:55:26.670Z,9.32
2024-02-08T15:58:34.833Z,9.31
2024-02-08T16:01:58.794Z,9.29
2024-02-08T16:05:22.730Z,9.27
2024-02-08T16:08:37.287Z,9.25
2024-02-08T16:11:42.617Z,9.20
2024-02-08T16:14:49.735Z,9.15
2024-02-08T16:18:07.732Z,9.08
2024-02-08T16:21:13.697Z,9.01
2024-02-08T16:24:38.675Z,8.94
2024-02-08T16:27:43.696Z,8.88
2024-02-08T16:30:59.869Z,8.81
2024-02-08T16:34:01.858Z,8.74
2024-02-08T16:37:11.786Z,8.67
2024-02-08T16:40:22.837Z,8.54
2024-02-08T16:43:27.815Z,8.44
2024-02-08T16:46:42.746Z,8.30
2024-02-08T16:49:51.732Z,8.16
2024-02-08T16:53:05.734Z,8.03
2024-02-08T16:56:11.944Z,7.90
2024-02-08T16:59:17.736Z,7.79
2024-02-08T17:02:28.548Z,7.69
2024-02-08T17:05:35.897Z,7.59
2024-02-08T17:09:09.818Z,7.48
2024-02-08T17:12:16.853Z,7.37
2024-02-08T17:15:56.463Z,7.26
2024-02-08T17:19:19.105Z,7.13
2024-02-08T17:22:48.847Z,7.01
2024-02-08T17:26:15.870Z,6.91
2024-02-08T17:29:29.859Z,6.82
2024-02-08T17:32:36.928Z,6.73
2024-02-08T17:35:49.000Z,6.62
2024-02-08T17:39:03.910Z,6.54
2024-02-08T17:42:16.860Z,6.46
2024-02-08T17:45:20.880Z,6.39
2024-02-08T17:48:36.974Z,6.31
2024-02-08T17:51:46.892Z,6.22
2024-02-08T17:54:54.985Z,6.11
2024-02-08T17:58:07.011Z,6.04
2024-02-08T18:01:22.968Z,5.98
2024-02-08T18:04:40.004Z,5.89
2024-02-08T18:07:45.062Z,5.79
2024-02-08T18:10:51.958Z,5.69
2024-02-08T18:14:08.028Z,5.61
2024-02-08T18:17:22.943Z,5.51
2024-02-08T18:20:31.736Z,5.42
2024-02-08T18:23:40.979Z,5.34
2024-02-08T18:26:48.969Z,5.26
2024-02-08T18:29:58.965Z,5.19
2024-02-08T18:33:03.065Z,5.14
2024-02-08T18:36:12.983Z,5.08
2024-02-08T18:39:32.041Z,5.04
2024-02-08T18:42:40.418Z,5.01
2024-02-08T18:45:44.027Z,4.98
2024-02-08T18:49:01.174Z,4.96
2024-02-08T18:52:06.171Z,4.93
2024-02-08T18:55:17.152Z,4.90
2024-02-08T18:58:19.398Z,4.87
2024-02-08T19:01:23.156Z,4.89
2024-02-08T19:04:27.610Z,4.89
2024-02-08T19:07:33.160Z,4.89
2024-02-08T19:10:35.204Z,4.87
2024-02-08T19:13:38.105Z,4.89
2024-02-08T19:16:44.101Z,4.93
2024-02-08T19:19:49.216Z,4.96
2024-02-08T19:22:54.281Z,4.97
2024-02-08T19:25:56.120Z,4.97
2024-02-08T19:28:59.396Z,4.89
2024-02-08T19:32:03.178Z,4.85
2024-02-08T19:35:08.132Z,4.82
2024-02-08T19:38:12.196Z,4.75
2024-02-08T19:41:15.138Z,4.73
2024-02-08T19:44:18.240Z,4.71
2024-02-08T19:47:21.222Z,4.67
2024-02-08T19:50:25.211Z,4.68
2024-02-08T19:53:36.176Z,4.68
2024-02-08T19:56:41.189Z,4.63
2024-02-08T19:59:47.583Z,4.67
2024-02-08T20:02:52.250Z,4.74
2024-02-08T20:05:55.350Z,4.78
2024-02-08T20:09:02.214Z,4.69
2024-02-08T20:12:06.279Z,4.67
2024-02-08T20:15:25.264Z,4.68
2024-02-08T20:18:29.341Z,4.59
2024-02-08T20:21:31.315Z,4.50
2024-02-08T20:24:37.301Z,4.40
2024-02-08T20:27:41.294Z,4.25
2024-02-08T20:30:46.317Z,4.14
2024-02-08T20:33:48.281Z,4.07
2024-02-08T20:36:53.404Z,4.00
2024-02-08T20:40:00.345Z,3.92
2024-02-08T20:43:06.313Z,3.82
2024-02-08T20:46:09.304Z,3.72
2024-02-08T20:49:12.443Z,3.65
2024-02-08T20:52:20.352Z,3.58
2024-02-08T20:55:27.384Z,3.50
2024-02-08T20:58:29.431Z,3.46
2024-02-08T21:01:32.374Z,3.44
2024-02-08T21:04:36.539Z,3.42
2024-02-08T21:07:39.492Z,3.39
2024-02-08T21:10:41.424Z,3.37
2024-02-08T21:13:49.859Z,3.34
2024-02-08T21:16:56.480Z,3.33
2024-02-08T21:19:59.623Z,3.30
2024-02-08T21:23:02.397Z,3.28
2024-02-08T21:26:05.391Z,3.26
2024-02-08T21:29:07.465Z,3.21
2024-02-08T21:32:10.453Z,3.16
2024-02-08T21:35:14.519Z,3.11
2024-02-08T21:38:21.513Z,3.09
2024-02-08T21:41:23.507Z,3.07
2024-02-08T21:44:28.490Z,3.03
2024-02-08T21:47:30.514Z,3.00
2024-02-08T21:50:33.456Z,2.97
2024-02-08T21:53:35.546Z,2.92
2024-02-08T21:56:45.528Z,2.86
2024-02-08T21:59:47.604Z,2.83
2024-02-08T22:02:49.633Z,2.80
2024-02-08T22:06:10.780Z,2.76
2024-02-08T22:09:18.519Z,2.71
2024-02-08T22:12:23.539Z,2.67
2024-02-08T22:15:32.517Z,2.61
2024-02-08T22:18:40.613Z,2.56
2024-02-08T22:21:47.516Z,2.54
2024-02-08T22:24:54.608Z,2.53
2024-02-08T22:28:08.595Z,2.51
2024-02-08T22:31:12.847Z,2.51
2024-02-08T22:34:24.671Z,2.50
2024-02-08T22:37:30.671Z,2.48
2024-02-08T22:40:34.701Z,2.49
2024-02-08T22:43:47.580Z,2.53
2024-02-08T22:46:58.595Z,2.57
2024-02-08T22:50:04.680Z,2.63
2024-02-08T22:53:20.919Z,2.70
2024-02-08T22:56:32.612Z,2.69
2024-02-08T22:59:36.631Z,2.70
2024-02-08T23:02:42.630Z,2.65
2024-02-08T23:06:13.680Z,2.66
2024-02-08T23:09:23.624Z,2.63
2024-02-08T23:12:37.684Z,2.71
2024-02-08T23:15:44.976Z,2.74
2024-02-08T23:18:46.795Z,2.74
2024-02-08T23:21:51.649Z,2.71
2024-02-08T23:24:55.752Z,2.68
2024-02-08T23:27:59.697Z,2.65
2024-02-08T23:31:03.729Z,2.62
2024-02-08T23:34:10.768Z,2.53
2024-02-08T23:37:14.814Z,2.49
2024-02-08T23:40:22.734Z,2.47
2024-02-08T23:43:26.769Z,2.48
2024-02-08T23:46:28.828Z,2.53
2024-02-08T23:49:33.850Z,2.53
2024-02-08T23:52:35.869Z,2.50
2024-02-08T23:55:37.778Z,2.43
2024-02-08T23:58:44.780Z,2.42
